createdAt,value
2023-05-01T00:01:43.874Z,11.75
2023-05-01T00:04:32.136Z,10.50
2023-05-01T00:07:14.925Z,7.75
2023-05-01T00:10:00.289Z,10.50
2023-05-01T00:12:56.192Z,10.50
2023-05-01T00:15:41.754Z,6.00
2023-05-01T00:18:08.839Z,6.25
2023-05-01T00:20:35.820Z,8.50
2023-05-01T00:23:02.738Z,4.50
2023-05-01T00:25:29.605Z,9.00
2023-05-01T00:27:56.503Z,6.25
2023-05-01T00:30:23.380Z,11.25
2023-05-01T00:32:50.318Z,20.50
2023-05-01T00:35:17.995Z,13.00
2023-05-01T00:37:45.133Z,12.50
2023-05-01T00:40:12.328Z,11.00
2023-05-01T00:42:40.170Z,11.25
2023-05-01T00:45:08.438Z,13.00
2023-05-01T00:47:39.039Z,9.00
2023-05-01T00:50:07.008Z,10.75
2023-05-01T00:52:34.220Z,10.50
2023-05-01T00:55:01.294Z,10.00
2023-05-01T00:57:28.253Z,11.50
2023-05-01T00:59:55.398Z,19.00
2023-05-01T01:02:22.793Z,25.67
2023-05-01T01:05:10.052Z,34.00
2023-05-01T01:07:53.744Z,36.00
2023-05-01T01:11:14.416Z,41.00
2023-05-01T01:14:18.585Z,46.33
2023-05-01T01:17:15.787Z,31.67
2023-05-01T01:20:11.276Z,29.00
2023-05-01T01:22:41.622Z,31.33
2023-05-01T01:25:46.799Z,16.33
2023-05-01T01:28:25.899Z,12.00
2023-05-01T01:31:14.361Z,13.33
2023-05-01T01:34:04.443Z,27.33
2023-05-01T01:36:56.415Z,28.67
2023-05-01T01:39:43.687Z,28.33
2023-05-01T01:42:18.588Z,19.00
2023-05-01T01:44:51.299Z,16.33
2023-05-01T01:47:21.124Z,15.67
2023-05-01T01:49:52.421Z,10.00
2023-05-01T01:52:22.289Z,22.00
2023-05-01T01:54:53.203Z,16.67
2023-05-01T01:57:22.994Z,17.67
2023-05-01T01:59:51.721Z,37.33
2023-05-01T02:02:21.181Z,44.33
2023-05-01T02:04:49.704Z,46.67
2023-05-01T02:07:18.432Z,49.67
2023-05-01T02:09:47.062Z,47.67
2023-05-01T02:12:17.106Z,50.67
2023-05-01T02:14:46.739Z,35.00
2023-05-01T02:17:16.504Z,41.33
2023-05-01T02:19:45.389Z,40.67
2023-05-01T02:22:13.952Z,30.00
2023-05-01T02:24:44.204Z,45.67
2023-05-01T02:27:21.367Z,47.67
2023-05-01T02:29:48.591Z,58.67
2023-05-01T02:32:15.551Z,50.67
2023-05-01T02:34:42.765Z,58.33
2023-05-01T02:37:12.050Z,39.00
2023-05-01T02:39:40.164Z,30.00
2023-05-01T02:42:09.868Z,16.67
2023-05-01T02:44:45.626Z,21.33
2023-05-01T02:47:18.533Z,20.00
2023-05-01T02:49:48.446Z,24.33
2023-05-01T02:52:17.629Z,15.00
2023-05-01T02:54:47.738Z,11.67
2023-05-01T02:57:14.727Z,11.67
2023-05-01T02:59:41.735Z,23.33
2023-05-01T03:02:08.728Z,26.33
2023-05-01T03:04:35.928Z,25.67
2023-05-01T03:07:02.952Z,20.00
2023-05-01T03:09:29.876Z,19.00
2023-05-01T03:11:56.742Z,20.67
2023-05-01T03:14:23.947Z,24.00
2023-05-01T03:16:51.081Z,20.00
2023-05-01T03:19:18.130Z,16.33
2023-05-01T03:21:45.098Z,19.00
2023-05-01T03:24:12.117Z,16.33
2023-05-01T03:26:39.040Z,11.67
2023-05-01T03:29:05.973Z,11.00
2023-05-01T03:31:32.989Z,6.00
2023-05-01T03:34:00.032Z,11.00
2023-05-01T03:36:27.876Z,17.67
2023-05-01T03:38:54.786Z,11.00
2023-05-01T03:41:21.723Z,7.00
2023-05-01T03:43:48.694Z,7.33
2023-05-01T03:46:15.694Z,6.00
2023-05-01T03:48:42.829Z,5.00
2023-05-01T03:51:09.764Z,5.33
2023-05-01T03:53:37.108Z,6.00
2023-05-01T03:56:04.907Z,15.67
2023-05-01T03:58:31.825Z,8.67
2023-05-01T04:01:01.128Z,12.00
2023-05-01T04:03:28.960Z,8.67
2023-05-01T04:05:56.236Z,9.33
2023-05-01T04:08:23.479Z,14.33
2023-05-01T04:10:50.421Z,17.33
2023-05-01T04:13:17.367Z,11.67
2023-05-01T04:15:47.595Z,10.00
2023-05-01T04:18:14.681Z,12.67
2023-05-01T04:20:41.684Z,14.67
2023-05-01T04:23:09.788Z,14.33
2023-05-01T04:25:37.368Z,17.00
2023-05-01T04:28:04.917Z,16.67
2023-05-01T04:30:32.184Z,10.00
2023-05-01T04:32:59.102Z,12.67
2023-05-01T04:35:26.122Z,9.67
2023-05-01T04:37:53.142Z,9.00
2023-05-01T04:40:20.057Z,13.33
2023-05-01T04:42:47.234Z,11.33
2023-05-01T04:45:14.144Z,10.67
2023-05-01T04:47:41.094Z,15.33
2023-05-01T04:50:08.599Z,13.25
2023-05-01T04:52:36.194Z,15.75
2023-05-01T04:55:04.073Z,14.25
2023-05-01T04:57:31.092Z,13.75
2023-05-01T04:59:58.664Z,14.00
2023-05-01T05:02:26.004Z,15.25
2023-05-01T05:04:54.396Z,13.00
2023-05-01T05:07:21.437Z,12.00
2023-05-01T05:09:48.540Z,7.50
2023-05-01T05:12:15.564Z,13.50
2023-05-01T05:14:43.519Z,14.00
2023-05-01T05:17:10.434Z,8.50
2023-05-01T05:19:37.382Z,10.00
2023-05-01T05:22:04.686Z,10.75
2023-05-01T05:24:31.823Z,16.00
2023-05-01T05:26:58.857Z,14.75
2023-05-01T05:29:25.909Z,15.50
2023-05-01T05:32:11.724Z,15.25
2023-05-01T05:34:58.848Z,12.75
2023-05-01T05:37:26.342Z,15.50
2023-05-01T05:39:53.581Z,15.00
2023-05-01T05:42:20.890Z,12.50
2023-05-01T05:44:47.802Z,10.25
2023-05-01T05:47:14.816Z,9.00
2023-05-01T05:49:41.766Z,6.50
2023-05-01T05:52:08.657Z,9.00
2023-05-01T05:54:35.928Z,7.00
2023-05-01T05:57:04.043Z,8.33
2023-05-01T05:59:30.999Z,5.33
2023-05-01T06:01:57.990Z,12.00
2023-05-01T06:04:25.002Z,7.00
2023-05-01T06:06:52.191Z,8.67
2023-05-01T06:09:19.293Z,7.00
2023-05-01T06:11:46.482Z,7.00
2023-05-01T06:14:13.542Z,6.00
2023-05-01T06:16:56.551Z,9.00
2023-05-01T06:19:31.341Z,4.33
2023-05-01T06:22:15.639Z,4.67
2023-05-01T06:24:42.499Z,6.67
2023-05-01T06:27:09.514Z,4.00
2023-05-01T06:29:37.031Z,6.00
2023-05-01T06:32:04.516Z,4.00
2023-05-01T06:34:31.411Z,6.33
2023-05-01T06:36:58.342Z,5.33
2023-05-01T06:39:25.352Z,4.00
2023-05-01T06:41:52.233Z,4.00
2023-05-01T06:44:19.180Z,4.00
2023-05-01T06:46:46.263Z,2.00
2023-05-01T06:49:13.200Z,4.67
2023-05-01T06:51:40.119Z,3.00
2023-05-01T06:54:07.021Z,2.33
2023-05-01T06:56:34.020Z,1.67
2023-05-01T06:59:00.945Z,5.00
2023-05-01T07:01:28.277Z,3.67
2023-05-01T07:03:55.211Z,2.67
2023-05-01T07:06:22.209Z,2.00
2023-05-01T07:08:49.331Z,3.00
2023-05-01T07:11:16.411Z,2.00
2023-05-01T07:13:43.312Z,1.00
2023-05-01T07:16:10.362Z,1.00
2023-05-01T07:18:38.052Z,2.00
2023-05-01T07:21:05.718Z,1.00
2023-05-01T07:23:32.618Z,4.33
2023-05-01T07:25:59.563Z,3.00
2023-05-01T07:28:26.435Z,2.00
2023-05-01T07:30:53.317Z,3.00
2023-05-01T07:33:20.372Z,3.33
2023-05-01T07:35:47.373Z,4.00
2023-05-01T07:38:16.274Z,4.00
2023-05-01T07:40:43.310Z,2.00
2023-05-01T07:43:13.286Z,2.00
2023-05-01T07:45:41.563Z,5.33
2023-05-01T07:48:08.676Z,2.00
2023-05-01T07:50:35.709Z,7.00
2023-05-01T07:53:02.647Z,3.00
2023-05-01T07:55:29.578Z,2.00
2023-05-01T07:57:56.636Z,2.25
2023-05-01T08:00:23.695Z,1.00
2023-05-01T08:02:52.017Z,1.00
2023-05-01T08:05:18.991Z,3.00
2023-05-01T08:07:46.034Z,2.00
2023-05-01T08:10:12.915Z,1.00
2023-05-01T08:12:39.866Z,2.00
2023-05-01T08:15:07.631Z,3.75
2023-05-01T08:17:36.160Z,2.00
2023-05-01T08:20:03.804Z,2.00
2023-05-01T08:22:30.777Z,1.00
2023-05-01T08:24:57.686Z,2.00
2023-05-01T08:27:24.731Z,2.00
2023-05-01T08:29:51.692Z,2.33
2023-05-01T08:32:19.099Z,3.00
2023-05-01T08:34:46.708Z,1.00
2023-05-01T08:37:13.605Z,3.00
2023-05-01T08:39:40.567Z,1.33
2023-05-01T08:42:08.411Z,1.00
2023-05-01T08:44:39.915Z,1.33
2023-05-01T08:47:16.207Z,2.00
2023-05-01T08:49:43.919Z,1.67
2023-05-01T08:52:15.657Z,0.33
2023-05-01T08:54:44.706Z,1.00
2023-05-01T08:57:12.662Z,3.00
2023-05-01T08:59:40.737Z,1.00
2023-05-01T09:02:10.133Z,3.00
2023-05-01T09:04:41.411Z,3.33
2023-05-01T09:07:10.080Z,2.00
2023-05-01T09:09:37.465Z,5.33
2023-05-01T09:12:18.961Z,3.00
2023-05-01T09:14:46.041Z,2.00
2023-05-01T09:17:14.022Z,2.33
2023-05-01T09:19:41.359Z,1.33
2023-05-01T09:22:09.969Z,7.00
2023-05-01T09:24:37.319Z,4.00
2023-05-01T09:27:04.212Z,2.00
2023-05-01T09:29:45.682Z,2.00
2023-05-01T09:32:22.653Z,2.00
2023-05-01T09:34:50.914Z,4.67
2023-05-01T09:37:34.268Z,4.67
2023-05-01T09:40:08.827Z,6.33
2023-05-01T09:43:00.094Z,3.33
2023-05-01T09:45:27.235Z,3.00
2023-05-01T09:48:11.703Z,2.33
2023-05-01T09:50:39.790Z,1.33
2023-05-01T09:53:07.049Z,1.67
2023-05-01T09:55:35.006Z,0.00
2023-05-01T09:58:02.534Z,1.00
2023-05-01T10:00:30.380Z,1.67
2023-05-01T10:02:57.497Z,2.00
2023-05-01T10:05:24.911Z,3.00
2023-05-01T10:08:15.139Z,3.33
2023-05-01T10:10:43.981Z,4.00
2023-05-01T10:13:15.532Z,3.00
2023-05-01T10:15:42.548Z,3.00
2023-05-01T10:18:14.233Z,1.00
2023-05-01T10:20:41.228Z,1.00
2023-05-01T10:23:08.413Z,1.67
2023-05-01T10:25:37.392Z,4.33
2023-05-01T10:28:07.737Z,2.00
2023-05-01T10:30:36.176Z,2.67
2023-05-01T10:33:03.709Z,1.00
2023-05-01T10:35:38.431Z,1.00
2023-05-01T10:38:08.040Z,1.33
2023-05-01T10:40:43.369Z,1.00
2023-05-01T10:43:21.455Z,0.00
2023-05-01T10:45:49.418Z,1.33
2023-05-01T10:48:38.018Z,1.00
2023-05-01T10:51:15.988Z,1.00
2023-05-01T10:53:44.476Z,0.00
2023-05-01T10:56:32.887Z,0.00
2023-05-01T10:59:04.783Z,0.00
2023-05-01T11:01:54.190Z,1.00
2023-05-01T11:04:24.935Z,1.00
2023-05-01T11:06:57.910Z,2.00
2023-05-01T11:09:44.453Z,0.00
2023-05-01T11:12:16.150Z,1.00
2023-05-01T11:14:55.993Z,1.00
2023-05-01T11:17:44.211Z,2.00
2023-05-01T11:20:36.798Z,1.00
2023-05-01T11:23:03.828Z,2.00
2023-05-01T11:25:32.139Z,1.00
2023-05-01T11:28:02.119Z,0.33
2023-05-01T11:30:39.748Z,2.33
2023-05-01T11:33:10.205Z,1.67
2023-05-01T11:35:38.936Z,2.00
2023-05-01T11:38:05.971Z,1.00
2023-05-01T11:40:35.242Z,2.00
2023-05-01T11:43:09.308Z,3.00
2023-05-01T11:45:37.738Z,1.00
2023-05-01T11:48:05.701Z,2.00
2023-05-01T11:50:35.890Z,1.00
2023-05-01T11:53:04.044Z,3.00
2023-05-01T11:55:32.862Z,2.00
2023-05-01T11:57:59.959Z,3.00
2023-05-01T12:00:43.698Z,1.00
2023-05-01T12:03:15.565Z,0.33
2023-05-01T12:05:44.841Z,1.00
2023-05-01T12:08:11.851Z,1.00
2023-05-01T12:10:41.212Z,1.33
2023-05-01T12:13:13.235Z,1.00
2023-05-01T12:15:45.868Z,3.00
2023-05-01T12:18:14.571Z,0.67
2023-05-01T12:20:47.710Z,4.00
2023-05-01T12:23:16.679Z,3.33
2023-05-01T12:25:45.148Z,3.67
2023-05-01T12:28:15.742Z,4.33
2023-05-01T12:30:43.999Z,4.00
2023-05-01T12:33:19.056Z,2.67
2023-05-01T12:35:48.384Z,4.00
2023-05-01T12:38:22.959Z,2.67
2023-05-01T12:40:57.883Z,2.00
2023-05-01T12:43:36.346Z,3.00
2023-05-01T12:46:05.214Z,4.00
2023-05-01T12:48:34.495Z,2.33
2023-05-01T12:51:01.901Z,3.67
2023-05-01T12:53:30.059Z,4.00
2023-05-01T12:55:58.386Z,3.00
2023-05-01T12:58:38.515Z,1.00
2023-05-01T13:01:06.524Z,2.00
2023-05-01T13:03:34.899Z,1.67
2023-05-01T13:06:05.972Z,1.67
2023-05-01T13:08:37.017Z,4.33
2023-05-01T13:11:13.574Z,4.00
2023-05-01T13:13:41.574Z,5.33
2023-05-01T13:16:10.607Z,3.67
2023-05-01T13:18:48.582Z,2.00
2023-05-01T13:21:17.966Z,2.00
2023-05-01T13:23:59.530Z,2.00
2023-05-01T13:26:35.397Z,0.67
2023-05-01T13:29:04.305Z,3.67
2023-05-01T13:31:31.529Z,1.67
2023-05-01T13:33:59.975Z,1.67
2023-05-01T13:36:33.488Z,0.00
2023-05-01T13:39:00.792Z,1.67
2023-05-01T13:41:28.360Z,1.67
2023-05-01T13:43:57.496Z,0.67
2023-05-01T13:46:26.745Z,0.67
2023-05-01T13:48:53.813Z,2.00
2023-05-01T13:51:23.415Z,3.00
2023-05-01T13:53:50.644Z,1.67
2023-05-01T13:56:17.651Z,2.00
2023-05-01T13:58:45.029Z,2.00
2023-05-01T14:01:21.002Z,1.33
2023-05-01T14:03:49.508Z,2.00
2023-05-01T14:06:18.709Z,2.67
2023-05-01T14:08:48.596Z,3.33
2023-05-01T14:11:35.471Z,0.67
2023-05-01T14:14:14.235Z,2.00
2023-05-01T14:17:01.427Z,2.00
2023-05-01T14:19:43.513Z,2.00
2023-05-01T14:22:25.731Z,2.00
2023-05-01T14:24:54.940Z,3.00
2023-05-01T14:27:40.535Z,1.67
2023-05-01T14:30:39.324Z,3.00
2023-05-01T14:33:10.137Z,2.67
2023-05-01T14:35:44.058Z,3.00
2023-05-01T14:38:13.239Z,2.00
2023-05-01T14:40:42.047Z,0.67
2023-05-01T14:43:11.026Z,1.00
2023-05-01T14:45:42.871Z,0.00
2023-05-01T14:48:49.863Z,0.00
2023-05-01T14:51:32.801Z,4.00
2023-05-01T14:54:27.914Z,2.67
2023-05-01T14:56:55.587Z,4.00
2023-05-01T14:59:24.715Z,4.67
2023-05-01T15:01:51.699Z,3.67
2023-05-01T15:04:19.209Z,2.33
2023-05-01T15:06:46.286Z,3.33
2023-05-01T15:09:13.821Z,3.67
2023-05-01T15:11:40.670Z,2.67
2023-05-01T15:14:07.760Z,3.67
2023-05-01T15:16:34.742Z,2.67
2023-05-01T15:19:01.739Z,4.67
2023-05-01T15:21:29.709Z,4.67
2023-05-01T15:24:17.288Z,3.33
2023-05-01T15:27:10.781Z,2.33
2023-05-01T15:30:00.834Z,4.00
2023-05-01T15:32:46.117Z,4.33
2023-05-01T15:35:39.086Z,2.00
2023-05-01T15:38:38.431Z,1.67
2023-05-01T15:41:41.118Z,4.33
2023-05-01T15:44:31.241Z,3.00
2023-05-01T15:47:28.354Z,3.00
2023-05-01T15:50:22.895Z,2.67
2023-05-01T15:53:16.714Z,1.67
2023-05-01T15:56:16.464Z,4.00
2023-05-01T15:59:12.533Z,5.00
2023-05-01T16:02:26.451Z,5.00
2023-05-01T16:05:32.169Z,4.67
2023-05-01T16:08:33.271Z,4.33
2023-05-01T16:11:35.584Z,1.67
2023-05-01T16:14:34.458Z,2.00
2023-05-01T16:17:29.539Z,2.00
2023-05-01T16:20:28.090Z,2.33
2023-05-01T16:22:55.047Z,4.67
2023-05-01T16:25:22.089Z,3.00
2023-05-01T16:28:11.810Z,5.67
2023-05-01T16:30:45.924Z,2.33
2023-05-01T16:33:21.096Z,3.00
2023-05-01T16:35:49.733Z,2.00
2023-05-01T16:38:18.317Z,3.00
2023-05-01T16:40:46.333Z,4.00
2023-05-01T16:43:13.353Z,3.33
2023-05-01T16:45:40.781Z,3.00
2023-05-01T16:48:07.790Z,4.00
2023-05-01T16:50:39.817Z,3.00
2023-05-01T16:53:06.729Z,2.00
2023-05-01T16:55:33.705Z,2.00
2023-05-01T16:58:00.664Z,3.00
2023-05-01T17:00:29.486Z,2.33
2023-05-01T17:02:59.188Z,3.33
2023-05-01T17:05:26.391Z,4.00
2023-05-01T17:07:53.279Z,3.00
2023-05-01T17:10:20.330Z,4.33
2023-05-01T17:12:48.206Z,4.00
2023-05-01T17:15:15.137Z,5.67
2023-05-01T17:17:42.078Z,4.00
2023-05-01T17:20:09.899Z,4.67
2023-05-01T17:22:37.147Z,5.00
2023-05-01T17:25:04.556Z,7.33
2023-05-01T17:27:31.573Z,6.67
2023-05-01T17:29:58.702Z,6.00
2023-05-01T17:32:36.381Z,3.00
2023-05-01T17:35:05.518Z,4.33
2023-05-01T17:37:33.280Z,4.33
2023-05-01T17:40:00.534Z,9.50
2023-05-01T17:42:27.750Z,14.50
2023-05-01T17:44:54.741Z,8.25
2023-05-01T17:47:22.673Z,8.75
2023-05-01T17:49:52.412Z,9.00
2023-05-01T17:52:19.355Z,11.75
2023-05-01T17:54:46.276Z,8.00
2023-05-01T17:57:13.293Z,6.00
2023-05-01T17:59:40.173Z,6.00
2023-05-01T18:02:07.379Z,3.00
2023-05-01T18:04:36.070Z,7.25
2023-05-01T18:07:03.698Z,13.75
2023-05-01T18:09:30.724Z,8.00
2023-05-01T18:11:57.640Z,5.25
2023-05-01T18:14:25.305Z,6.00
2023-05-01T18:16:52.996Z,3.00
2023-05-01T18:19:20.105Z,4.00
2023-05-01T18:21:47.004Z,4.75
2023-05-01T18:24:14.168Z,5.25
2023-05-01T18:26:41.062Z,6.75
2023-05-01T18:29:08.179Z,6.75
2023-05-01T18:31:38.324Z,5.25
2023-05-01T18:34:06.700Z,4.00
2023-05-01T18:36:33.629Z,4.50
2023-05-01T18:39:02.147Z,4.00
2023-05-01T18:41:29.011Z,3.00
2023-05-01T18:43:57.859Z,1.75
2023-05-01T18:46:25.077Z,2.25
2023-05-01T18:48:52.086Z,1.00
2023-05-01T18:51:18.985Z,2.00
2023-05-01T18:53:46.045Z,2.00
2023-05-01T18:56:12.935Z,3.50
2023-05-01T18:58:40.151Z,7.00
2023-05-01T19:01:07.190Z,12.50
2023-05-01T19:03:34.097Z,9.75
2023-05-01T19:06:01.246Z,12.75
2023-05-01T19:08:28.223Z,7.75
2023-05-01T19:10:55.158Z,5.25
2023-05-01T19:13:27.545Z,6.00
2023-05-01T19:15:54.524Z,6.25
2023-05-01T19:18:21.526Z,4.25
2023-05-01T19:20:48.441Z,4.50
2023-05-01T19:23:15.349Z,3.75
2023-05-01T19:25:42.327Z,3.00
2023-05-01T19:28:09.397Z,4.75
2023-05-01T19:30:36.337Z,6.00
2023-05-01T19:33:04.184Z,4.75
2023-05-01T19:35:31.265Z,3.00
2023-05-01T19:37:59.417Z,3.50
2023-05-01T19:40:26.400Z,5.25
2023-05-01T19:42:53.333Z,8.00
2023-05-01T19:45:20.265Z,4.75
2023-05-01T19:47:47.219Z,5.00
2023-05-01T19:50:18.288Z,7.00
2023-05-01T19:52:45.195Z,7.50
2023-05-01T19:55:13.326Z,11.00
2023-05-01T19:57:40.250Z,11.00
2023-05-01T20:00:07.669Z,7.25
2023-05-01T20:02:34.707Z,6.50
2023-05-01T20:05:01.670Z,4.50
2023-05-01T20:07:30.498Z,4.00
2023-05-01T20:09:57.634Z,8.25
2023-05-01T20:12:24.770Z,7.00
2023-05-01T20:14:51.957Z,9.00
2023-05-01T20:17:18.892Z,4.00
2023-05-01T20:19:45.908Z,9.00
2023-05-01T20:22:12.792Z,13.50
2023-05-01T20:24:39.703Z,13.50
2023-05-01T20:27:06.838Z,12.75
2023-05-01T20:29:33.781Z,10.00
2023-05-01T20:32:00.694Z,8.50
2023-05-01T20:34:27.645Z,11.25
2023-05-01T20:36:54.573Z,10.00
2023-05-01T20:39:21.470Z,6.25
2023-05-01T20:41:48.528Z,5.25
2023-05-01T20:44:15.809Z,6.00
2023-05-01T20:46:44.198Z,6.00
2023-05-01T20:49:13.776Z,2.00
2023-05-01T20:51:42.973Z,5.00
2023-05-01T20:54:09.850Z,2.00
2023-05-01T20:56:36.821Z,2.75
2023-05-01T20:59:03.957Z,3.50
2023-05-01T21:01:33.708Z,3.00
2023-05-01T21:04:01.207Z,2.50
2023-05-01T21:06:32.044Z,3.00
2023-05-01T21:09:02.193Z,5.00
2023-05-01T21:11:29.140Z,4.00
2023-05-01T21:13:58.604Z,4.50
2023-05-01T21:16:27.818Z,4.50
2023-05-01T21:18:54.748Z,7.00
2023-05-01T21:21:21.742Z,6.00
2023-05-01T21:23:49.235Z,2.00
2023-05-01T21:26:16.540Z,5.00
2023-05-01T21:28:43.857Z,5.25
2023-05-01T21:31:14.442Z,4.75
2023-05-01T21:33:45.936Z,9.75
2023-05-01T21:36:17.227Z,14.00
2023-05-01T21:38:44.158Z,10.00
2023-05-01T21:41:15.579Z,12.50
2023-05-01T21:43:42.972Z,16.25
2023-05-01T21:46:18.071Z,21.75
2023-05-01T21:48:50.805Z,27.00
2023-05-01T21:51:18.334Z,18.25
2023-05-01T21:53:45.371Z,24.75
2023-05-01T21:56:14.504Z,20.50
2023-05-01T21:58:41.376Z,22.75
2023-05-01T22:01:09.651Z,18.25
2023-05-01T22:03:41.833Z,27.25
2023-05-01T22:06:09.020Z,23.00
2023-05-01T22:08:35.921Z,31.00
2023-05-01T22:11:03.145Z,33.75
2023-05-01T22:13:33.872Z,41.75
2023-05-01T22:16:01.210Z,47.25
2023-05-01T22:18:28.612Z,37.00
2023-05-01T22:20:55.721Z,35.00
2023-05-01T22:23:22.682Z,31.25
2023-05-01T22:25:51.382Z,24.50
2023-05-01T22:28:19.099Z,17.75
2023-05-01T22:30:47.093Z,21.75
2023-05-01T22:33:14.026Z,18.75
2023-05-01T22:35:41.078Z,13.00
2023-05-01T22:38:08.497Z,9.50
2023-05-01T22:40:36.119Z,10.75
2023-05-01T22:43:03.013Z,7.75
2023-05-01T22:45:29.937Z,9.00
2023-05-01T22:47:56.835Z,6.75
2023-05-01T22:50:23.762Z,8.75
2023-05-01T22:52:50.685Z,9.00
2023-05-01T22:55:17.960Z,10.00
2023-05-01T22:57:44.895Z,13.75
2023-05-01T23:00:13.108Z,8.75
2023-05-01T23:02:40.196Z,5.75
2023-05-01T23:05:08.094Z,9.25
2023-05-01T23:07:35.620Z,16.75
2023-05-01T23:10:02.925Z,9.50
2023-05-01T23:12:30.234Z,16.75
2023-05-01T23:14:57.212Z,17.75
2023-05-01T23:17:27.358Z,14.50
2023-05-01T23:19:58.686Z,20.25
2023-05-01T23:22:26.089Z,16.75
2023-05-01T23:24:53.061Z,15.00
2023-05-01T23:27:22.665Z,13.00
2023-05-01T23:29:58.322Z,13.75
2023-05-01T23:32:28.816Z,10.50
2023-05-01T23:35:01.033Z,11.00
2023-05-01T23:37:28.115Z,23.75
2023-05-01T23:39:55.028Z,18.50
2023-05-01T23:42:22.964Z,25.75
2023-05-01T23:44:50.346Z,19.75
2023-05-01T23:47:17.491Z,26.00
2023-05-01T23:49:44.417Z,22.00
2023-05-01T23:52:11.720Z,28.50
2023-05-01T23:54:38.582Z,18.00
2023-05-01T23:57:05.520Z,18.50
2023-05-01T23:59:32.410Z,16.00
